sensor_id;sensor_type;location;lat;lon;timestamp;P1;durP1;ratioP1;P2;durP2;ratioP2
28170;SDS011;15458;53.346;-1.688;2023-09-18T00:01:39;59.78;;;35.15;;
28170;SDS011;15458;53.346;-1.688;2023-09-18T00:04:05;66.13;;;37.40;;
28170;SDS011;15458;53.346;-1.688;2023-09-18T00:06:32;57.88;;;33.03;;
28170;SDS011;15458;53.346;-1.688;2023-09-18T00:08:58;57.33;;;37.28;;
28170;SDS011;15458;53.346;-1.688;2023-09-18T00:11:23;64.82;;;37.03;;
28170;SDS011;15458;53.346;-1.688;2023-09-18T00:13:49;68.07;;;37.00;;
28170;SDS011;15458;53.346;-1.688;2023-09-18T00:16:15;64.88;;;38.45;;
28170;SDS011;15458;53.346;-1.688;2023-09-18T00:18:41;68.80;;;38.65;;
28170;SDS011;15458;53.346;-1.688;2023-09-18T00:21:07;64.20;;;37.95;;
28170;SDS011;15458;53.346;-1.688;2023-09-18T00:23:35;57.80;;;34.78;;
28170;SDS011;15458;53.346;-1.688;2023-09-18T00:26:01;71.70;;;39.38;;
28170;SDS011;15458;53.346;-1.688;2023-09-18T00:28:27;69.38;;;38.97;;
28170;SDS011;15458;53.346;-1.688;2023-09-18T00:30:53;65.35;;;36.35;;
28170;SDS011;15458;53.346;-1.688;2023-09-18T00:33:18;67.65;;;37.33;;
28170;SDS011;15458;53.346;-1.688;2023-09-18T00:35:45;63.88;;;39.13;;
28170;SDS011;15458;53.346;-1.688;2023-09-18T00:38:11;71.03;;;39.22;;
28170;SDS011;15458;53.346;-1.688;2023-09-18T00:40:37;73.93;;;40.05;;
28170;SDS011;15458;53.346;-1.688;2023-09-18T00:43:03;73.22;;;38.95;;
28170;SDS011;15458;53.346;-1.688;2023-09-18T00:45:29;65.47;;;38.28;;
28170;SDS011;15458;53.346;-1.688;2023-09-18T00:47:55;57.72;;;33.58;;
28170;SDS011;15458;53.346;-1.688;2023-09-18T00:50:20;64.07;;;37.13;;
28170;SDS011;15458;53.346;-1.688;2023-09-18T00:52:47;66.53;;;37.65;;
28170;SDS011;15458;53.346;-1.688;2023-09-18T00:55:13;63.45;;;34.97;;
28170;SDS011;15458;53.346;-1.688;2023-09-18T00:57:40;65.75;;;36.25;;
28170;SDS011;15458;53.346;-1.688;2023-09-18T01:00:06;75.13;;;38.00;;
28170;SDS011;15458;53.346;-1.688;2023-09-18T01:02:32;66.88;;;36.67;;
28170;SDS011;15458;53.346;-1.688;2023-09-18T01:04:58;66.32;;;37.90;;
28170;SDS011;15458;53.346;-1.688;2023-09-18T01:07:24;66.97;;;35.33;;
28170;SDS011;15458;53.346;-1.688;2023-09-18T01:09:50;73.30;;;38.25;;
28170;SDS011;15458;53.346;-1.688;2023-09-18T01:20:21;73.20;;;35.53;;
28170;SDS011;15458;53.346;-1.688;2023-09-18T01:22:47;71.35;;;34.75;;
28170;SDS011;15458;53.346;-1.688;2023-09-18T01:25:14;77.05;;;36.85;;
28170;SDS011;15458;53.346;-1.688;2023-09-18T01:27:40;51.42;;;28.42;;
28170;SDS011;15458;53.346;-1.688;2023-09-18T01:30:07;66.05;;;32.28;;
28170;SDS011;15458;53.346;-1.688;2023-09-18T01:32:33;54.53;;;28.73;;
28170;SDS011;15458;53.346;-1.688;2023-09-18T01:35:02;63.15;;;32.20;;
28170;SDS011;15458;53.346;-1.688;2023-09-18T01:37:31;62.72;;;32.20;;
28170;SDS011;15458;53.346;-1.688;2023-09-18T01:39:57;64.75;;;32.92;;
28170;SDS011;15458;53.346;-1.688;2023-09-18T01:42:24;65.35;;;34.17;;
28170;SDS011;15458;53.346;-1.688;2023-09-18T01:44:52;48.97;;;26.83;;
28170;SDS011;15458;53.346;-1.688;2023-09-18T01:47:19;62.05;;;32.40;;
28170;SDS011;15458;53.346;-1.688;2023-09-18T01:49:48;45.45;;;26.63;;
28170;SDS011;15458;53.346;-1.688;2023-09-18T01:52:13;52.58;;;29.25;;
28170;SDS011;15458;53.346;-1.688;2023-09-18T01:54:39;61.88;;;32.30;;
28170;SDS011;15458;53.346;-1.688;2023-09-18T01:57:05;56.13;;;30.05;;
28170;SDS011;15458;53.346;-1.688;2023-09-18T01:59:32;55.42;;;29.50;;
28170;SDS011;15458;53.346;-1.688;2023-09-18T02:01:58;38.97;;;22.25;;
28170;SDS011;15458;53.346;-1.688;2023-09-18T02:04:24;50.38;;;27.60;;
28170;SDS011;15458;53.346;-1.688;2023-09-18T02:06:50;44.38;;;25.15;;
28170;SDS011;15458;53.346;-1.688;2023-09-18T02:09:17;36.28;;;20.65;;
28170;SDS011;15458;53.346;-1.688;2023-09-18T02:11:44;49.22;;;27.40;;
28170;SDS011;15458;53.346;-1.688;2023-09-18T02:14:11;39.33;;;23.35;;
28170;SDS011;15458;53.346;-1.688;2023-09-18T02:16:38;48.17;;;27.05;;
28170;SDS011;15458;53.346;-1.688;2023-09-18T02:19:08;50.05;;;25.58;;
28170;SDS011;15458;53.346;-1.688;2023-09-18T02:21:35;52.20;;;27.75;;
28170;SDS011;15458;53.346;-1.688;2023-09-18T02:24:01;51.90;;;27.33;;
28170;SDS011;15458;53.346;-1.688;2023-09-18T02:26:27;56.28;;;28.33;;
28170;SDS011;15458;53.346;-1.688;2023-09-18T02:28:53;59.40;;;27.42;;
28170;SDS011;15458;53.346;-1.688;2023-09-18T02:31:20;49.15;;;26.13;;
28170;SDS011;15458;53.346;-1.688;2023-09-18T02:33:46;52.88;;;26.75;;
28170;SDS011;15458;53.346;-1.688;2023-09-18T02:36:12;52.90;;;28.10;;
28170;SDS011;15458;53.346;-1.688;2023-09-18T02:38:38;50.80;;;27.10;;
28170;SDS011;15458;53.346;-1.688;2023-09-18T02:41:04;49.72;;;27.27;;
28170;SDS011;15458;53.346;-1.688;2023-09-18T02:43:30;48.45;;;25.73;;
28170;SDS011;15458;53.346;-1.688;2023-09-18T02:45:55;47.95;;;24.73;;
28170;SDS011;15458;53.346;-1.688;2023-09-18T02:48:21;46.00;;;23.75;;
28170;SDS011;15458;53.346;-1.688;2023-09-18T02:50:47;41.20;;;22.90;;
28170;SDS011;15458;53.346;-1.688;2023-09-18T02:53:16;42.80;;;24.70;;
28170;SDS011;15458;53.346;-1.688;2023-09-18T02:55:47;45.20;;;24.80;;
28170;SDS011;15458;53.346;-1.688;2023-09-18T02:58:16;48.63;;;24.90;;
28170;SDS011;15458;53.346;-1.688;2023-09-18T03:00:42;42.67;;;24.58;;
28170;SDS011;15458;53.346;-1.688;2023-09-18T03:03:11;28.77;;;18.20;;
28170;SDS011;15458;53.346;-1.688;2023-09-18T03:05:37;44.38;;;24.65;;
28170;SDS011;15458;53.346;-1.688;2023-09-18T03:08:05;44.80;;;24.67;;
28170;SDS011;15458;53.346;-1.688;2023-09-18T03:10:40;47.03;;;25.15;;
28170;SDS011;15458;53.346;-1.688;2023-09-18T03:13:07;47.63;;;23.52;;
28170;SDS011;15458;53.346;-1.688;2023-09-18T03:15:34;32.75;;;20.65;;
28170;SDS011;15458;53.346;-1.688;2023-09-18T03:18:01;42.28;;;21.80;;
28170;SDS011;15458;53.346;-1.688;2023-09-18T03:20:28;39.33;;;21.70;;
28170;SDS011;15458;53.346;-1.688;2023-09-18T03:22:54;44.55;;;21.20;;
28170;SDS011;15458;53.346;-1.688;2023-09-18T03:25:21;36.72;;;19.25;;
28170;SDS011;15458;53.346;-1.688;2023-09-18T03:27:47;33.42;;;21.45;;
28170;SDS011;15458;53.346;-1.688;2023-09-18T03:30:13;34.38;;;19.98;;
28170;SDS011;15458;53.346;-1.688;2023-09-18T03:32:41;28.42;;;15.57;;
28170;SDS011;15458;53.346;-1.688;2023-09-18T03:35:07;38.38;;;21.00;;
28170;SDS011;15458;53.346;-1.688;2023-09-18T03:37:40;28.30;;;17.35;;
28170;SDS011;15458;53.346;-1.688;2023-09-18T03:40:06;34.85;;;20.17;;
28170;SDS011;15458;53.346;-1.688;2023-09-18T03:42:33;35.58;;;19.90;;
28170;SDS011;15458;53.346;-1.688;2023-09-18T03:44:59;35.53;;;20.27;;
28170;SDS011;15458;53.346;-1.688;2023-09-18T03:47:25;25.25;;;16.13;;
28170;SDS011;15458;53.346;-1.688;2023-09-18T03:49:51;32.72;;;18.83;;
28170;SDS011;15458;53.346;-1.688;2023-09-18T03:52:16;33.55;;;20.42;;
28170;SDS011;15458;53.346;-1.688;2023-09-18T03:54:42;38.08;;;20.00;;
28170;SDS011;15458;53.346;-1.688;2023-09-18T03:57:07;24.55;;;14.93;;
28170;SDS011;15458;53.346;-1.688;2023-09-18T03:59:33;25.15;;;16.15;;
28170;SDS011;15458;53.346;-1.688;2023-09-18T04:01:59;33.28;;;18.48;;
28170;SDS011;15458;53.346;-1.688;2023-09-18T04:04:24;29.35;;;15.32;;
28170;SDS011;15458;53.346;-1.688;2023-09-18T04:06:50;33.83;;;19.27;;
28170;SDS011;15458;53.346;-1.688;2023-09-18T04:09:16;33.55;;;18.42;;
28170;SDS011;15458;53.346;-1.688;2023-09-18T04:11:43;31.52;;;17.83;;
28170;SDS011;15458;53.346;-1.688;2023-09-18T04:14:08;34.53;;;17.88;;
28170;SDS011;15458;53.346;-1.688;2023-09-18T04:16:34;27.67;;;16.25;;
28170;SDS011;15458;53.346;-1.688;2023-09-18T04:19:06;27.50;;;17.33;;
28170;SDS011;15458;53.346;-1.688;2023-09-18T04:21:33;28.58;;;17.52;;
28170;SDS011;15458;53.346;-1.688;2023-09-18T04:23:58;25.45;;;15.90;;
28170;SDS011;15458;53.346;-1.688;2023-09-18T04:26:24;27.48;;;15.75;;
28170;SDS011;15458;53.346;-1.688;2023-09-18T04:28:54;27.50;;;16.35;;
28170;SDS011;15458;53.346;-1.688;2023-09-18T04:31:20;36.95;;;18.40;;
28170;SDS011;15458;53.346;-1.688;2023-09-18T04:33:46;28.58;;;16.65;;
28170;SDS011;15458;53.346;-1.688;2023-09-18T04:36:12;33.38;;;18.73;;
28170;SDS011;15458;53.346;-1.688;2023-09-18T04:38:37;28.98;;;15.95;;
28170;SDS011;15458;53.346;-1.688;2023-09-18T04:41:03;26.70;;;16.25;;
28170;SDS011;15458;53.346;-1.688;2023-09-18T04:43:28;25.05;;;16.25;;
28170;SDS011;15458;53.346;-1.688;2023-09-18T04:45:55;29.42;;;16.45;;
28170;SDS011;15458;53.346;-1.688;2023-09-18T04:48:21;28.88;;;16.13;;
28170;SDS011;15458;53.346;-1.688;2023-09-18T04:50:47;26.65;;;16.33;;
28170;SDS011;15458;53.346;-1.688;2023-09-18T04:53:14;29.50;;;17.25;;
28170;SDS011;15458;53.346;-1.688;2023-09-18T04:55:39;30.85;;;17.45;;
28170;SDS011;15458;53.346;-1.688;2023-09-18T04:58:06;28.10;;;17.23;;
28170;SDS011;15458;53.346;-1.688;2023-09-18T05:00:32;23.83;;;13.70;;
28170;SDS011;15458;53.346;-1.688;2023-09-18T05:02:58;31.63;;;16.65;;
28170;SDS011;15458;53.346;-1.688;2023-09-18T05:05:26;27.48;;;14.68;;
28170;SDS011;15458;53.346;-1.688;2023-09-18T05:07:53;21.63;;;13.38;;
28170;SDS011;15458;53.346;-1.688;2023-09-18T05:10:18;18.02;;;10.55;;
28170;SDS011;15458;53.346;-1.688;2023-09-18T05:12:44;15.60;;;7.82;;
28170;SDS011;15458;53.346;-1.688;2023-09-18T05:15:15;13.82;;;8.43;;
28170;SDS011;15458;53.346;-1.688;2023-09-18T05:17:45;14.40;;;8.10;;
28170;SDS011;15458;53.346;-1.688;2023-09-18T05:20:13;14.07;;;8.30;;
28170;SDS011;15458;53.346;-1.688;2023-09-18T05:22:41;12.25;;;7.90;;
28170;SDS011;15458;53.346;-1.688;2023-09-18T05:25:11;10.45;;;7.68;;
28170;SDS011;15458;53.346;-1.688;2023-09-18T05:27:38;12.50;;;7.03;;
28170;SDS011;15458;53.346;-1.688;2023-09-18T05:30:13;11.75;;;6.82;;
28170;SDS011;15458;53.346;-1.688;2023-09-18T05:35:06;14.80;;;6.50;;
28170;SDS011;15458;53.346;-1.688;2023-09-18T05:37:35;12.50;;;7.50;;
28170;SDS011;15458;53.346;-1.688;2023-09-18T05:40:02;10.32;;;6.57;;
28170;SDS011;15458;53.346;-1.688;2023-09-18T05:42:30;12.23;;;6.43;;
28170;SDS011;15458;53.346;-1.688;2023-09-18T05:44:56;8.35;;;5.85;;
28170;SDS011;15458;53.346;-1.688;2023-09-18T05:47:21;11.77;;;6.53;;
28170;SDS011;15458;53.346;-1.688;2023-09-18T05:49:48;12.23;;;6.30;;
28170;SDS011;15458;53.346;-1.688;2023-09-18T05:52:14;10.02;;;5.60;;
28170;SDS011;15458;53.346;-1.688;2023-09-18T05:54:39;9.27;;;5.65;;
28170;SDS011;15458;53.346;-1.688;2023-09-18T05:57:05;7.10;;;4.90;;
28170;SDS011;15458;53.346;-1.688;2023-09-18T05:59:32;6.97;;;5.10;;
28170;SDS011;15458;53.346;-1.688;2023-09-18T06:01:57;8.23;;;5.25;;
28170;SDS011;15458;53.346;-1.688;2023-09-18T06:04:23;11.85;;;5.47;;
28170;SDS011;15458;53.346;-1.688;2023-09-18T06:06:49;7.95;;;5.35;;
28170;SDS011;15458;53.346;-1.688;2023-09-18T06:09:16;7.25;;;4.65;;
28170;SDS011;15458;53.346;-1.688;2023-09-18T06:11:41;9.13;;;4.80;;
28170;SDS011;15458;53.346;-1.688;2023-09-18T06:14:07;8.18;;;5.07;;
28170;SDS011;15458;53.346;-1.688;2023-09-18T06:16:33;6.18;;;4.53;;
28170;SDS011;15458;53.346;-1.688;2023-09-18T06:18:59;10.30;;;4.47;;
28170;SDS011;15458;53.346;-1.688;2023-09-18T06:21:25;7.35;;;3.67;;
28170;SDS011;15458;53.346;-1.688;2023-09-18T06:23:51;8.48;;;3.75;;
28170;SDS011;15458;53.346;-1.688;2023-09-18T06:26:16;9.93;;;3.97;;
28170;SDS011;15458;53.346;-1.688;2023-09-18T06:28:43;6.85;;;3.80;;
28170;SDS011;15458;53.346;-1.688;2023-09-18T06:31:10;8.48;;;3.50;;
28170;SDS011;15458;53.346;-1.688;2023-09-18T06:33:36;9.80;;;4.10;;
28170;SDS011;15458;53.346;-1.688;2023-09-18T06:36:02;8.38;;;3.53;;
28170;SDS011;15458;53.346;-1.688;2023-09-18T06:38:28;7.65;;;4.07;;
28170;SDS011;15458;53.346;-1.688;2023-09-18T06:40:53;5.63;;;2.47;;
28170;SDS011;15458;53.346;-1.688;2023-09-18T06:43:20;5.47;;;2.90;;
28170;SDS011;15458;53.346;-1.688;2023-09-18T06:45:46;4.30;;;2.92;;
28170;SDS011;15458;53.346;-1.688;2023-09-18T06:48:11;9.98;;;2.35;;
28170;SDS011;15458;53.346;-1.688;2023-09-18T06:50:39;4.78;;;2.65;;
28170;SDS011;15458;53.346;-1.688;2023-09-18T06:53:04;4.35;;;2.42;;
28170;SDS011;15458;53.346;-1.688;2023-09-18T06:55:30;3.67;;;2.08;;
28170;SDS011;15458;53.346;-1.688;2023-09-18T06:57:56;4.68;;;2.33;;
28170;SDS011;15458;53.346;-1.688;2023-09-18T07:00:21;4.35;;;2.10;;
28170;SDS011;15458;53.346;-1.688;2023-09-18T07:02:47;3.00;;;2.00;;
28170;SDS011;15458;53.346;-1.688;2023-09-18T07:05:14;5.47;;;2.35;;
28170;SDS011;15458;53.346;-1.688;2023-09-18T07:07:40;6.22;;;2.33;;
28170;SDS011;15458;53.346;-1.688;2023-09-18T07:10:05;12.15;;;3.53;;
28170;SDS011;15458;53.346;-1.688;2023-09-18T07:12:31;7.38;;;2.80;;
28170;SDS011;15458;53.346;-1.688;2023-09-18T07:14:58;7.32;;;2.40;;
28170;SDS011;15458;53.346;-1.688;2023-09-18T07:17:31;4.60;;;2.72;;
28170;SDS011;15458;53.346;-1.688;2023-09-18T07:20:00;8.07;;;2.67;;
28170;SDS011;15458;53.346;-1.688;2023-09-18T07:22:28;5.22;;;3.05;;
28170;SDS011;15458;53.346;-1.688;2023-09-18T07:24:54;4.72;;;2.80;;
28170;SDS011;15458;53.346;-1.688;2023-09-18T07:27:19;4.40;;;2.63;;
28170;SDS011;15458;53.346;-1.688;2023-09-18T07:29:45;5.75;;;3.63;;
28170;SDS011;15458;53.346;-1.688;2023-09-18T07:32:10;5.32;;;2.58;;
28170;SDS011;15458;53.346;-1.688;2023-09-18T07:34:36;6.00;;;3.20;;
28170;SDS011;15458;53.346;-1.688;2023-09-18T07:37:02;7.90;;;3.60;;
28170;SDS011;15458;53.346;-1.688;2023-09-18T07:39:28;5.82;;;3.13;;
28170;SDS011;15458;53.346;-1.688;2023-09-18T07:41:54;8.02;;;3.22;;
28170;SDS011;15458;53.346;-1.688;2023-09-18T07:44:21;5.75;;;2.90;;
28170;SDS011;15458;53.346;-1.688;2023-09-18T07:46:47;6.18;;;3.10;;
28170;SDS011;15458;53.346;-1.688;2023-09-18T07:49:13;9.75;;;3.45;;
28170;SDS011;15458;53.346;-1.688;2023-09-18T07:51:39;6.65;;;3.13;;
28170;SDS011;15458;53.346;-1.688;2023-09-18T07:54:06;8.77;;;2.95;;
28170;SDS011;15458;53.346;-1.688;2023-09-18T07:56:32;6.88;;;2.83;;
28170;SDS011;15458;53.346;-1.688;2023-09-18T07:58:59;8.50;;;3.13;;
28170;SDS011;15458;53.346;-1.688;2023-09-18T08:01:25;7.90;;;3.17;;
28170;SDS011;15458;53.346;-1.688;2023-09-18T08:03:51;7.38;;;2.80;;
28170;SDS011;15458;53.346;-1.688;2023-09-18T08:06:16;6.30;;;2.50;;
28170;SDS011;15458;53.346;-1.688;2023-09-18T08:08:44;4.43;;;2.67;;
28170;SDS011;15458;53.346;-1.688;2023-09-18T08:11:10;11.23;;;3.33;;
28170;SDS011;15458;53.346;-1.688;2023-09-18T08:13:35;6.95;;;2.80;;
28170;SDS011;15458;53.346;-1.688;2023-09-18T08:16:06;9.20;;;3.25;;
28170;SDS011;15458;53.346;-1.688;2023-09-18T08:18:32;11.27;;;4.03;;
28170;SDS011;15458;53.346;-1.688;2023-09-18T08:20:57;7.85;;;3.20;;
28170;SDS011;15458;53.346;-1.688;2023-09-18T08:23:26;6.20;;;3.38;;
28170;SDS011;15458;53.346;-1.688;2023-09-18T08:25:52;6.15;;;2.92;;
28170;SDS011;15458;53.346;-1.688;2023-09-18T08:28:22;6.88;;;3.35;;
28170;SDS011;15458;53.346;-1.688;2023-09-18T08:30:48;4.05;;;2.70;;
28170;SDS011;15458;53.346;-1.688;2023-09-18T08:33:14;6.30;;;2.50;;
28170;SDS011;15458;53.346;-1.688;2023-09-18T08:35:39;7.57;;;2.67;;
28170;SDS011;15458;53.346;-1.688;2023-09-18T08:38:05;3.65;;;1.85;;
28170;SDS011;15458;53.346;-1.688;2023-09-18T08:40:32;6.50;;;2.28;;
28170;SDS011;15458;53.346;-1.688;2023-09-18T08:42:59;5.32;;;2.88;;
28170;SDS011;15458;53.346;-1.688;2023-09-18T08:45:35;4.88;;;2.60;;
28170;SDS011;15458;53.346;-1.688;2023-09-18T08:48:08;4.50;;;2.13;;
28170;SDS011;15458;53.346;-1.688;2023-09-18T08:50:35;4.20;;;1.75;;
28170;SDS011;15458;53.346;-1.688;2023-09-18T08:53:01;3.25;;;1.80;;
28170;SDS011;15458;53.346;-1.688;2023-09-18T08:55:28;6.20;;;2.42;;
28170;SDS011;15458;53.346;-1.688;2023-09-18T08:57:54;5.28;;;1.98;;
28170;SDS011;15458;53.346;-1.688;2023-09-18T09:00:23;9.48;;;2.35;;
28170;SDS011;15458;53.346;-1.688;2023-09-18T09:02:48;5.47;;;1.90;;
28170;SDS011;15458;53.346;-1.688;2023-09-18T09:05:16;8.00;;;2.03;;
28170;SDS011;15458;53.346;-1.688;2023-09-18T09:07:42;4.43;;;2.10;;
28170;SDS011;15458;53.346;-1.688;2023-09-18T09:10:07;7.85;;;2.10;;
28170;SDS011;15458;53.346;-1.688;2023-09-18T09:12:52;3.08;;;1.60;;
28170;SDS011;15458;53.346;-1.688;2023-09-18T09:15:25;3.78;;;1.98;;
28170;SDS011;15458;53.346;-1.688;2023-09-18T09:18:06;5.03;;;1.60;;
28170;SDS011;15458;53.346;-1.688;2023-09-18T09:20:34;6.88;;;1.90;;
28170;SDS011;15458;53.346;-1.688;2023-09-18T09:23:03;6.30;;;1.77;;
28170;SDS011;15458;53.346;-1.688;2023-09-18T09:25:34;4.97;;;1.77;;
28170;SDS011;15458;53.346;-1.688;2023-09-18T09:28:01;5.22;;;2.13;;
28170;SDS011;15458;53.346;-1.688;2023-09-18T09:30:29;6.05;;;1.60;;
28170;SDS011;15458;53.346;-1.688;2023-09-18T09:32:57;10.00;;;1.90;;
28170;SDS011;15458;53.346;-1.688;2023-09-18T09:35:28;6.40;;;2.03;;
28170;SDS011;15458;53.346;-1.688;2023-09-18T09:38:29;6.18;;;2.15;;
28170;SDS011;15458;53.346;-1.688;2023-09-18T09:40:58;6.70;;;2.00;;
28170;SDS011;15458;53.346;-1.688;2023-09-18T09:43:25;7.15;;;1.80;;
28170;SDS011;15458;53.346;-1.688;2023-09-18T09:45:58;3.17;;;1.42;;
28170;SDS011;15458;53.346;-1.688;2023-09-18T09:48:25;4.22;;;1.58;;
28170;SDS011;15458;53.346;-1.688;2023-09-18T09:50:51;3.08;;;1.52;;
28170;SDS011;15458;53.346;-1.688;2023-09-18T09:53:20;6.80;;;1.58;;
28170;SDS011;15458;53.346;-1.688;2023-09-18T09:56:17;5.18;;;1.67;;
28170;SDS011;15458;53.346;-1.688;2023-09-18T09:58:44;7.22;;;1.83;;
28170;SDS011;15458;53.346;-1.688;2023-09-18T10:01:24;3.97;;;1.50;;
28170;SDS011;15458;53.346;-1.688;2023-09-18T10:03:52;3.60;;;1.65;;
28170;SDS011;15458;53.346;-1.688;2023-09-18T10:06:20;5.40;;;1.63;;
28170;SDS011;15458;53.346;-1.688;2023-09-18T10:08:46;2.25;;;1.52;;
28170;SDS011;15458;53.346;-1.688;2023-09-18T10:11:13;5.88;;;2.00;;
28170;SDS011;15458;53.346;-1.688;2023-09-18T10:13:44;3.43;;;1.73;;
28170;SDS011;15458;53.346;-1.688;2023-09-18T10:16:53;3.55;;;1.63;;
28170;SDS011;15458;53.346;-1.688;2023-09-18T10:24:33;4.93;;;1.50;;
28170;SDS011;15458;53.346;-1.688;2023-09-18T10:27:04;6.18;;;1.52;;
28170;SDS011;15458;53.346;-1.688;2023-09-18T10:29:34;2.63;;;1.40;;
28170;SDS011;15458;53.346;-1.688;2023-09-18T10:32:04;6.85;;;1.48;;
28170;SDS011;15458;53.346;-1.688;2023-09-18T10:34:34;4.15;;;1.58;;
28170;SDS011;15458;53.346;-1.688;2023-09-18T10:37:01;3.78;;;1.70;;
28170;SDS011;15458;53.346;-1.688;2023-09-18T10:39:31;7.97;;;1.83;;
28170;SDS011;15458;53.346;-1.688;2023-09-18T10:42:00;4.05;;;1.55;;
28170;SDS011;15458;53.346;-1.688;2023-09-18T10:44:28;4.72;;;1.48;;
28170;SDS011;15458;53.346;-1.688;2023-09-18T10:46:54;6.30;;;1.10;;
28170;SDS011;15458;53.346;-1.688;2023-09-18T10:49:20;2.05;;;1.02;;
28170;SDS011;15458;53.346;-1.688;2023-09-18T10:51:47;3.70;;;1.27;;
28170;SDS011;15458;53.346;-1.688;2023-09-18T10:54:19;2.78;;;0.77;;
28170;SDS011;15458;53.346;-1.688;2023-09-18T10:56:46;2.63;;;0.90;;
28170;SDS011;15458;53.346;-1.688;2023-09-18T10:59:13;2.90;;;0.80;;
28170;SDS011;15458;53.346;-1.688;2023-09-18T11:01:40;2.72;;;0.63;;
28170;SDS011;15458;53.346;-1.688;2023-09-18T11:04:07;1.35;;;0.73;;
28170;SDS011;15458;53.346;-1.688;2023-09-18T11:09:23;1.15;;;0.60;;
28170;SDS011;15458;53.346;-1.688;2023-09-18T11:14:44;3.97;;;1.15;;
28170;SDS011;15458;53.346;-1.688;2023-09-18T11:25:38;5.03;;;0.93;;
28170;SDS011;15458;53.346;-1.688;2023-09-18T11:28:06;3.75;;;1.17;;
28170;SDS011;15458;53.346;-1.688;2023-09-18T11:30:48;6.80;;;1.48;;
28170;SDS011;15458;53.346;-1.688;2023-09-18T11:38:32;8.73;;;1.63;;
28170;SDS011;15458;53.346;-1.688;2023-09-18T11:41:22;4.47;;;1.20;;
28170;SDS011;15458;53.346;-1.688;2023-09-18T11:43:52;3.78;;;1.42;;
28170;SDS011;15458;53.346;-1.688;2023-09-18T11:46:50;3.83;;;1.13;;
28170;SDS011;15458;53.346;-1.688;2023-09-18T11:49:23;4.00;;;1.10;;
28170;SDS011;15458;53.346;-1.688;2023-09-18T11:51:52;6.88;;;1.38;;
28170;SDS011;15458;53.346;-1.688;2023-09-18T11:54:19;6.40;;;1.42;;
28170;SDS011;15458;53.346;-1.688;2023-09-18T11:56:46;3.63;;;1.15;;
28170;SDS011;15458;53.346;-1.688;2023-09-18T11:59:15;5.13;;;1.20;;
28170;SDS011;15458;53.346;-1.688;2023-09-18T12:01:42;6.45;;;1.73;;
28170;SDS011;15458;53.346;-1.688;2023-09-18T12:04:11;7.30;;;1.55;;
28170;SDS011;15458;53.346;-1.688;2023-09-18T12:06:40;5.20;;;1.38;;
28170;SDS011;15458;53.346;-1.688;2023-09-18T12:09:06;6.50;;;1.58;;
28170;SDS011;15458;53.346;-1.688;2023-09-18T12:11:33;6.20;;;1.60;;
28170;SDS011;15458;53.346;-1.688;2023-09-18T12:14:00;6.75;;;1.45;;
28170;SDS011;15458;53.346;-1.688;2023-09-18T12:16:30;4.78;;;1.38;;
28170;SDS011;15458;53.346;-1.688;2023-09-18T12:18:55;5.40;;;1.70;;
28170;SDS011;15458;53.346;-1.688;2023-09-18T12:21:22;7.82;;;1.60;;
28170;SDS011;15458;53.346;-1.688;2023-09-18T12:23:48;8.70;;;1.90;;
28170;SDS011;15458;53.346;-1.688;2023-09-18T12:26:15;9.75;;;2.20;;
28170;SDS011;15458;53.346;-1.688;2023-09-18T12:28:46;9.25;;;1.75;;
28170;SDS011;15458;53.346;-1.688;2023-09-18T12:31:14;8.45;;;1.70;;
28170;SDS011;15458;53.346;-1.688;2023-09-18T12:33:41;6.85;;;1.80;;
28170;SDS011;15458;53.346;-1.688;2023-09-18T12:36:12;5.32;;;1.45;;
28170;SDS011;15458;53.346;-1.688;2023-09-18T12:38:44;5.90;;;1.60;;
28170;SDS011;15458;53.346;-1.688;2023-09-18T12:41:19;6.72;;;2.35;;
28170;SDS011;15458;53.346;-1.688;2023-09-18T12:43:45;5.72;;;1.40;;
28170;SDS011;15458;53.346;-1.688;2023-09-18T12:46:11;8.07;;;1.60;;
28170;SDS011;15458;53.346;-1.688;2023-09-18T12:48:40;6.85;;;1.23;;
28170;SDS011;15458;53.346;-1.688;2023-09-18T12:51:12;5.18;;;1.50;;
28170;SDS011;15458;53.346;-1.688;2023-09-18T12:53:39;8.95;;;1.63;;
28170;SDS011;15458;53.346;-1.688;2023-09-18T12:56:10;2.65;;;1.42;;
28170;SDS011;15458;53.346;-1.688;2023-09-18T12:58:39;4.95;;;1.38;;
28170;SDS011;15458;53.346;-1.688;2023-09-18T13:01:06;3.85;;;0.90;;
28170;SDS011;15458;53.346;-1.688;2023-09-18T13:03:41;1.25;;;0.50;;
28170;SDS011;15458;53.346;-1.688;2023-09-18T13:06:12;2.28;;;0.68;;
28170;SDS011;15458;53.346;-1.688;2023-09-18T13:08:45;0.60;;;0.50;;
28170;SDS011;15458;53.346;-1.688;2023-09-18T13:11:11;1.58;;;0.60;;
28170;SDS011;15458;53.346;-1.688;2023-09-18T13:13:39;0.40;;;0.40;;
28170;SDS011;15458;53.346;-1.688;2023-09-18T13:16:06;2.38;;;0.40;;
28170;SDS011;15458;53.346;-1.688;2023-09-18T13:18:34;3.60;;;0.50;;
28170;SDS011;15458;53.346;-1.688;2023-09-18T13:21:00;0.93;;;0.30;;
28170;SDS011;15458;53.346;-1.688;2023-09-18T13:23:34;1.95;;;0.30;;
28170;SDS011;15458;53.346;-1.688;2023-09-18T13:26:04;1.17;;;0.30;;
28170;SDS011;15458;53.346;-1.688;2023-09-18T13:28:31;1.13;;;0.25;;
28170;SDS011;15458;53.346;-1.688;2023-09-18T13:30:59;3.35;;;0.65;;
28170;SDS011;15458;53.346;-1.688;2023-09-18T13:33:29;2.10;;;0.52;;
28170;SDS011;15458;53.346;-1.688;2023-09-18T13:35:56;3.08;;;0.77;;
28170;SDS011;15458;53.346;-1.688;2023-09-18T13:38:21;4.07;;;0.68;;
28170;SDS011;15458;53.346;-1.688;2023-09-18T13:40:47;5.00;;;1.13;;
28170;SDS011;15458;53.346;-1.688;2023-09-18T13:43:14;3.70;;;1.02;;
28170;SDS011;15458;53.346;-1.688;2023-09-18T13:45:40;1.98;;;0.73;;
28170;SDS011;15458;53.346;-1.688;2023-09-18T13:48:06;4.85;;;1.10;;
28170;SDS011;15458;53.346;-1.688;2023-09-18T13:50:33;5.00;;;1.13;;
28170;SDS011;15458;53.346;-1.688;2023-09-18T13:53:00;5.03;;;0.88;;
28170;SDS011;15458;53.346;-1.688;2023-09-18T13:55:26;5.50;;;1.20;;
28170;SDS011;15458;53.346;-1.688;2023-09-18T13:57:52;3.47;;;1.20;;
28170;SDS011;15458;53.346;-1.688;2023-09-18T14:00:17;2.83;;;1.20;;
28170;SDS011;15458;53.346;-1.688;2023-09-18T14:02:43;6.03;;;1.50;;
28170;SDS011;15458;53.346;-1.688;2023-09-18T14:05:09;5.32;;;1.17;;
28170;SDS011;15458;53.346;-1.688;2023-09-18T14:07:36;8.77;;;1.35;;
28170;SDS011;15458;53.346;-1.688;2023-09-18T14:10:04;8.73;;;2.65;;
28170;SDS011;15458;53.346;-1.688;2023-09-18T14:12:35;11.15;;;2.30;;
28170;SDS011;15458;53.346;-1.688;2023-09-18T14:15:05;7.70;;;2.15;;
28170;SDS011;15458;53.346;-1.688;2023-09-18T14:17:31;6.97;;;1.90;;
28170;SDS011;15458;53.346;-1.688;2023-09-18T14:19:57;10.27;;;2.53;;
28170;SDS011;15458;53.346;-1.688;2023-09-18T14:22:24;10.45;;;1.90;;
28170;SDS011;15458;53.346;-1.688;2023-09-18T14:24:50;7.95;;;1.65;;
28170;SDS011;15458;53.346;-1.688;2023-09-18T14:27:15;9.90;;;1.98;;
28170;SDS011;15458;53.346;-1.688;2023-09-18T14:29:41;13.15;;;2.95;;
28170;SDS011;15458;53.346;-1.688;2023-09-18T14:32:07;8.25;;;2.20;;
28170;SDS011;15458;53.346;-1.688;2023-09-18T14:34:33;12.05;;;2.40;;
28170;SDS011;15458;53.346;-1.688;2023-09-18T14:37:01;7.63;;;1.30;;
28170;SDS011;15458;53.346;-1.688;2023-09-18T14:39:30;4.22;;;1.58;;
28170;SDS011;15458;53.346;-1.688;2023-09-18T14:41:57;5.13;;;1.40;;
28170;SDS011;15458;53.346;-1.688;2023-09-18T14:44:24;13.38;;;2.38;;
28170;SDS011;15458;53.346;-1.688;2023-09-18T14:46:50;7.22;;;1.70;;
28170;SDS011;15458;53.346;-1.688;2023-09-18T14:49:17;9.88;;;2.53;;
28170;SDS011;15458;53.346;-1.688;2023-09-18T14:51:43;8.95;;;1.33;;
28170;SDS011;15458;53.346;-1.688;2023-09-18T14:54:09;8.52;;;1.70;;
28170;SDS011;15458;53.346;-1.688;2023-09-18T14:56:35;6.75;;;1.48;;
28170;SDS011;15458;53.346;-1.688;2023-09-18T14:59:02;14.88;;;2.08;;
28170;SDS011;15458;53.346;-1.688;2023-09-18T15:01:28;10.30;;;1.67;;